Terminal Aerodrome Forecast
Issued by NWS

Home | Current Version | Previous Version | Text Only | Print | Product List | Glossary On
Versions: 1 2 3 4 5 6 7 8 9 10 11 12 13 14 15 16 17 18 19
000
FTUS46 KSEW 282104 AAB
TAFHQM
TAF AMD
KHQM 282104Z 2821/2918 19017KT 2SM -RA BR BKN009 OVC014
     FM282200 21015KT P6SM -SHRA BKN035 BKN050
     FM290200 24012KT P6SM VCSH BKN035 BKN050
     FM290700 26007KT P6SM VCSH BKN020 BKN035=

USA.gov is the U.S. government's official web portal to all federal, state and local government web resources and services.